createdAt,value
2022-08-09T00:00:01.127Z,22.6
2022-08-09T00:00:59.714Z,22.6
2022-08-09T00:02:03.466Z,22.5
2022-08-09T00:03:10.775Z,22.5
2022-08-09T00:04:11.042Z,22.5
2022-08-09T00:06:16.945Z,22.4
2022-08-09T00:06:16.979Z,22.4
2022-08-09T00:07:13.051Z,22.3
2022-08-09T00:08:31.758Z,22.3
2022-08-09T00:09:17.090Z,22.3
2022-08-09T00:10:21.323Z,22.3
2022-08-09T00:11:24.764Z,22.3
2022-08-09T00:12:23.492Z,22.2
2022-08-09T00:13:25.134Z,22.2
2022-08-09T00:14:28.064Z,22.2
2022-08-09T00:15:35.711Z,22.2
2022-08-09T00:16:36.558Z,22.2
2022-08-09T00:18:04.936Z,22.2
2022-08-09T00:18:35.927Z,22.2
2022-08-09T00:19:37.507Z,22.2
2022-08-09T00:20:41.589Z,22.2
2022-08-09T00:21:43.302Z,22.3
2022-08-09T00:22:43.069Z,22.3
2022-08-09T00:23:54.203Z,22.3
2022-08-09T00:24:47.084Z,22.3
2022-08-09T00:25:51.590Z,22.3
2022-08-09T00:26:52.134Z,22.3
2022-08-09T00:27:54.084Z,22.3
2022-08-09T00:28:56.137Z,22.2
2022-08-09T00:30:10.610Z,22.1
2022-08-09T00:31:00.110Z,22.1
2022-08-09T00:32:02.785Z,22.1
2022-08-09T00:33:04.126Z,22.1
2022-08-09T00:34:06.128Z,22.1
2022-08-09T00:35:08.170Z,22.1
2022-08-09T00:36:10.118Z,22.1
2022-08-09T00:37:12.540Z,22.1
2022-08-09T00:38:15.175Z,22
2022-08-09T00:39:17.192Z,22
2022-08-09T00:40:19.664Z,22
2022-08-09T00:44:08.758Z,21.9
2022-08-09T00:44:08.884Z,21.9
2022-08-09T00:45:00.143Z,21.8
2022-08-09T00:46:02.150Z,21.8
2022-08-09T00:47:05.845Z,21.8
2022-08-09T00:48:06.123Z,21.8
2022-08-09T00:49:08.120Z,21.7
2022-08-09T00:50:14.148Z,21.7
2022-08-09T00:51:12.836Z,21.7
2022-08-09T00:52:15.890Z,21.7
2022-08-09T00:53:16.137Z,21.8
2022-08-09T00:54:18.121Z,21.8
2022-08-09T00:55:32.622Z,21.7
2022-08-09T00:56:22.129Z,21.7
2022-08-09T00:57:24.847Z,21.7
2022-08-09T00:58:27.749Z,21.6
2022-08-09T00:59:40.771Z,21.6
2022-08-09T01:00:30.762Z,21.6
2022-08-09T01:01:32.582Z,21.6
2022-08-09T01:02:34.350Z,21.6
2022-08-09T01:03:36.514Z,21.5
2022-08-09T01:04:38.137Z,21.5
2022-08-09T01:05:50.873Z,21.5
2022-08-09T01:06:53.607Z,21.5
2022-08-09T01:07:59.865Z,21.5
2022-08-09T01:08:48.940Z,21.6
2022-08-09T01:09:48.149Z,21.6
2022-08-09T01:10:51.139Z,21.6
2022-08-09T01:11:53.482Z,21.6
2022-08-09T01:12:54.155Z,21.6
2022-08-09T01:13:59.719Z,21.6
2022-08-09T01:14:58.166Z,21.6
2022-08-09T01:16:00.252Z,21.6
2022-08-09T01:17:02.161Z,21.6
2022-08-09T01:18:04.471Z,21.6
2022-08-09T01:19:06.202Z,21.6
2022-08-09T01:20:08.209Z,21.6
2022-08-09T01:21:10.227Z,21.6
2022-08-09T01:22:12.303Z,21.6
2022-08-09T01:24:01.425Z,21.6
2022-08-09T01:24:16.177Z,21.6
2022-08-09T01:25:19.176Z,21.6
2022-08-09T01:26:20.168Z,21.6
2022-08-09T01:27:22.202Z,21.6
2022-08-09T01:28:25.374Z,21.6
2022-08-09T01:29:27.998Z,21.6
2022-08-09T01:30:28.905Z,21.6
2022-08-09T01:31:40.922Z,21.6
2022-08-09T01:32:38.678Z,21.6
2022-08-09T01:33:34.209Z,21.6
2022-08-09T01:34:36.265Z,21.6
2022-08-09T01:35:39.165Z,21.6
2022-08-09T01:36:40.209Z,21.6
2022-08-09T01:37:43.019Z,21.6
2022-08-09T01:38:44.249Z,21.6
2022-08-09T01:39:46.374Z,21.6
2022-08-09T01:40:52.297Z,21.5
2022-08-09T01:41:53.909Z,21.5
2022-08-09T01:42:52.210Z,21.5
2022-08-09T01:43:54.206Z,21.5
2022-08-09T01:44:56.233Z,21.5
2022-08-09T01:45:58.353Z,21.5
2022-08-09T01:47:00.190Z,21.5
2022-08-09T01:48:02.213Z,21.5
2022-08-09T01:49:09.958Z,21.5
2022-08-09T01:50:06.384Z,21.5
2022-08-09T01:51:08.243Z,21.6
2022-08-09T01:52:10.221Z,21.6
2022-08-09T01:53:19.123Z,21.6
2022-08-09T01:54:14.225Z,21.6
2022-08-09T01:55:16.223Z,21.6
2022-08-09T01:56:18.218Z,21.5
2022-08-09T01:57:20.675Z,21.5
2022-08-09T01:58:24.077Z,21.5
2022-08-09T01:59:24.234Z,21.5
2022-08-09T02:00:34.586Z,21.5
2022-08-09T02:01:30.753Z,21.5
2022-08-09T02:02:31.366Z,21.5
2022-08-09T02:03:32.726Z,21.6
2022-08-09T02:04:34.264Z,21.6
2022-08-09T02:05:38.267Z,21.6
2022-08-09T02:06:38.299Z,21.6
2022-08-09T02:08:36.188Z,21.6
2022-08-09T02:08:58.264Z,21.6
2022-08-09T02:09:44.277Z,21.7
2022-08-09T02:10:50.811Z,21.7
2022-08-09T02:11:48.275Z,21.7
2022-08-09T02:12:50.290Z,21.7
2022-08-09T02:13:55.583Z,21.7
2022-08-09T02:14:54.266Z,21.7
2022-08-09T02:15:56.524Z,21.8
2022-08-09T02:17:00.204Z,21.8
2022-08-09T02:18:10.071Z,21.8
2022-08-09T02:19:02.260Z,21.8
2022-08-09T02:20:04.383Z,21.9
2022-08-09T02:21:06.334Z,21.9
2022-08-09T02:22:08.288Z,21.9
2022-08-09T02:23:10.515Z,21.9
2022-08-09T02:24:12.260Z,21.9
2022-08-09T02:25:14.998Z,21.9
2022-08-09T02:26:25.458Z,21.9
2022-08-09T02:27:18.642Z,21.9
2022-08-09T02:28:20.502Z,21.9
2022-08-09T02:29:22.291Z,21.9
2022-08-09T02:30:25.306Z,21.9
2022-08-09T02:31:26.344Z,21.9
2022-08-09T02:32:28.275Z,21.9
2022-08-09T02:33:37.531Z,21.9
2022-08-09T02:34:41.235Z,21.9
2022-08-09T02:36:02.318Z,21.9
2022-08-09T02:36:36.310Z,21.9
2022-08-09T02:37:38.320Z,21.9
2022-08-09T02:38:40.511Z,21.9
2022-08-09T02:39:42.682Z,21.9
2022-08-09T02:40:44.359Z,21.9
2022-08-09T02:41:46.294Z,21.9
2022-08-09T02:42:50.949Z,21.9
2022-08-09T02:43:53.656Z,21.9
2022-08-09T02:44:52.324Z,21.9
2022-08-09T02:45:54.339Z,21.9
2022-08-09T02:46:56.300Z,21.9
2022-08-09T02:47:59.472Z,21.9
2022-08-09T02:49:00.315Z,21.9
2022-08-09T02:50:02.494Z,21.8
2022-08-09T02:51:04.350Z,21.8
2022-08-09T02:52:06.329Z,21.8
2022-08-09T02:53:08.386Z,21.8
2022-08-09T02:54:10.351Z,21.8
2022-08-09T02:55:15.182Z,21.8
2022-08-09T02:56:14.317Z,21.8
2022-08-09T02:57:23.324Z,21.8
2022-08-09T02:58:33.105Z,21.7
2022-08-09T02:59:26.079Z,21.7
2022-08-09T03:00:25.824Z,21.6
2022-08-09T03:01:29.739Z,21.6
2022-08-09T03:02:26.371Z,21.5
2022-08-09T03:03:59.607Z,21.5
2022-08-09T03:04:30.500Z,21.4
2022-08-09T03:05:34.311Z,21.4
2022-08-09T03:06:34.332Z,21.4
2022-08-09T03:07:36.331Z,21.5
2022-08-09T03:08:38.868Z,21.5
2022-08-09T03:09:42.744Z,21.5
2022-08-09T03:10:42.367Z,21.6
2022-08-09T03:12:06.787Z,21.5
2022-08-09T03:12:49.327Z,21.5
2022-08-09T03:13:59.511Z,21.5
2022-08-09T03:14:50.351Z,21.6
2022-08-09T03:16:05.087Z,21.6
2022-08-09T03:16:54.407Z,21.6
2022-08-09T03:17:57.855Z,21.7
2022-08-09T03:18:58.389Z,21.7
2022-08-09T03:20:03.610Z,21.6
2022-08-09T03:21:02.386Z,21.6
2022-08-09T03:22:04.356Z,21.6
2022-08-09T03:23:15.378Z,21.5
2022-08-09T03:24:09.938Z,21.4
2022-08-09T03:25:26.267Z,21.3
2022-08-09T03:26:12.863Z,21.2
2022-08-09T03:27:14.379Z,21.1
2022-08-09T03:28:16.375Z,21
2022-08-09T03:29:22.858Z,21
2022-08-09T03:30:23.619Z,20.9
2022-08-09T03:31:22.864Z,20.9
2022-08-09T03:32:24.423Z,20.9
2022-08-09T03:33:26.381Z,20.9
2022-08-09T03:34:28.378Z,20.9
2022-08-09T03:35:44.526Z,21
2022-08-09T03:36:32.412Z,21
2022-08-09T03:37:54.917Z,21
2022-08-09T03:38:37.200Z,21.1
2022-08-09T03:39:38.478Z,21.1
2022-08-09T03:40:40.387Z,21.2
2022-08-09T03:41:44.878Z,21.2
2022-08-09T03:42:44.396Z,21.2
2022-08-09T03:43:51.985Z,21.2
2022-08-09T03:44:48.404Z,21.2
2022-08-09T03:46:03.579Z,21.2
2022-08-09T03:46:52.435Z,21.2
2022-08-09T03:47:54.408Z,21.3
2022-08-09T03:48:56.466Z,21.3
2022-08-09T03:49:58.934Z,21.4
2022-08-09T03:51:00.407Z,21.4
2022-08-09T03:52:03.631Z,21.4
2022-08-09T03:53:04.430Z,21.4
2022-08-09T03:54:06.430Z,21.1
2022-08-09T03:55:09.718Z,20.8
2022-08-09T03:56:10.432Z,20.7
2022-08-09T03:57:18.217Z,20.6
2022-08-09T03:58:17.023Z,20.6
2022-08-09T03:59:17.325Z,20.6
2022-08-09T04:00:18.421Z,20.5
2022-08-09T04:01:20.461Z,20.4
2022-08-09T04:02:26.343Z,20.3
2022-08-09T04:03:24.786Z,20.2
2022-08-09T04:04:26.426Z,20.2
2022-08-09T04:05:28.427Z,20.3
2022-08-09T04:06:30.430Z,20.4
2022-08-09T04:07:33.971Z,20.5
2022-08-09T04:08:34.439Z,20.6
2022-08-09T04:09:42.377Z,20.7
2022-08-09T04:10:38.483Z,20.7
2022-08-09T04:11:40.522Z,20.8
2022-08-09T04:12:44.459Z,20.8
2022-08-09T04:13:44.815Z,20.7
2022-08-09T04:14:54.375Z,20.8
2022-08-09T04:16:19.132Z,20.8
2022-08-09T04:16:50.461Z,20.9
2022-08-09T04:17:52.513Z,21
2022-08-09T04:18:54.482Z,21.1
2022-08-09T04:19:56.615Z,21.2
2022-08-09T04:20:58.450Z,21.2
2022-08-09T04:22:00.488Z,21.3
2022-08-09T04:23:02.541Z,21.4
2022-08-09T04:24:04.467Z,21.4
2022-08-09T04:25:06.471Z,21.5
2022-08-09T04:26:08.465Z,21.6
2022-08-09T04:27:10.486Z,21.8
2022-08-09T04:28:12.571Z,21.9
2022-08-09T04:29:15.707Z,22
2022-08-09T04:30:16.484Z,22.1
2022-08-09T04:31:18.468Z,22.1
2022-08-09T04:32:23.626Z,22.1
2022-08-09T04:33:22.500Z,22.1
2022-08-09T04:34:30.543Z,22.1
2022-08-09T04:35:26.476Z,22
2022-08-09T04:36:28.482Z,21.8
2022-08-09T04:37:42.316Z,21.6
2022-08-09T04:38:32.514Z,21.5
2022-08-09T04:39:40.464Z,21.3
2022-08-09T04:40:36.821Z,21.3
2022-08-09T04:41:43.522Z,21.2
2022-08-09T04:42:40.584Z,21.1
2022-08-09T04:43:46.480Z,21.2
2022-08-09T04:44:49.235Z,21.2
2022-08-09T04:45:53.425Z,21.3
2022-08-09T04:46:57.833Z,21.4
2022-08-09T04:47:59.599Z,21.6
2022-08-09T04:48:57.816Z,21.7
2022-08-09T04:49:55.757Z,21.8
2022-08-09T04:50:56.530Z,22
2022-08-09T04:51:58.533Z,22.1
2022-08-09T04:53:00.494Z,22.2
2022-08-09T04:54:02.733Z,22.2
2022-08-09T04:55:04.782Z,22.2
2022-08-09T04:56:06.506Z,22.3
2022-08-09T04:57:09.257Z,22.4
2022-08-09T04:58:10.557Z,22.6
2022-08-09T04:59:13.058Z,22.7
2022-08-09T05:00:16.801Z,22.7
2022-08-09T05:01:18.713Z,22.7
2022-08-09T05:02:18.568Z,22.6
2022-08-09T05:03:41.360Z,22.5
2022-08-09T05:04:22.650Z,22.5
2022-08-09T05:05:31.663Z,22.5
2022-08-09T05:06:27.452Z,22.5
2022-08-09T05:07:29.407Z,22.6
2022-08-09T05:08:30.534Z,22.7
2022-08-09T05:09:42.613Z,22.7
2022-08-09T05:10:36.684Z,22.8
2022-08-09T05:11:36.610Z,22.8
2022-08-09T05:12:38.965Z,22.8
2022-08-09T05:13:40.549Z,22.8
2022-08-09T05:14:42.576Z,22.9
2022-08-09T05:15:47.859Z,23
2022-08-09T05:16:58.621Z,23.1
2022-08-09T05:18:37.268Z,23.2
2022-08-09T05:18:58.915Z,23.3
2022-08-09T05:19:56.805Z,23.4
2022-08-09T05:20:54.550Z,23.5
2022-08-09T05:21:56.623Z,23.5
2022-08-09T05:23:51.294Z,23.5
2022-08-09T05:24:01.854Z,23.6
2022-08-09T05:25:02.831Z,23.6
2022-08-09T05:26:04.599Z,23.7
2022-08-09T05:27:06.558Z,23.8
2022-08-09T05:28:08.549Z,23.9
2022-08-09T05:29:17.200Z,23.9
2022-08-09T05:30:12.631Z,24
2022-08-09T05:31:14.559Z,24
2022-08-09T05:32:16.565Z,24.1
2022-08-09T05:33:18.566Z,24.2
2022-08-09T05:34:20.633Z,24.3
2022-08-09T05:35:22.569Z,24.4
2022-08-09T05:36:26.490Z,24.4
2022-08-09T05:37:26.572Z,24.4
2022-08-09T05:38:28.576Z,24.3
2022-08-09T05:39:35.914Z,24.2
2022-08-09T05:40:32.590Z,24
2022-08-09T05:41:34.631Z,23.7
2022-08-09T05:42:36.823Z,23.6
2022-08-09T05:43:38.593Z,23.6
2022-08-09T05:44:40.591Z,23.7
2022-08-09T05:45:43.703Z,23.8
2022-08-09T05:46:44.616Z,23.9
2022-08-09T05:47:51.925Z,24
2022-08-09T05:48:48.784Z,24.1
2022-08-09T05:50:24.875Z,24.1
2022-08-09T05:51:11.927Z,24.1
2022-08-09T05:51:55.648Z,24
2022-08-09T05:52:57.630Z,23.9
2022-08-09T05:53:59.607Z,23.8
2022-08-09T05:55:02.863Z,23.6
2022-08-09T05:56:03.620Z,23.6
2022-08-09T05:57:06.357Z,23.6
2022-08-09T05:58:07.641Z,23.7
2022-08-09T05:59:10.539Z,23.8
2022-08-09T06:00:11.745Z,23.9
2022-08-09T06:01:15.894Z,23.9
2022-08-09T06:02:16.913Z,23.9
2022-08-09T06:03:19.775Z,23.9
2022-08-09T06:04:23.255Z,24
2022-08-09T06:05:30.514Z,24
2022-08-09T06:06:23.620Z,24
2022-08-09T06:07:25.667Z,24
2022-08-09T06:08:27.622Z,24
2022-08-09T06:09:54.227Z,24
2022-08-09T06:10:31.627Z,24
2022-08-09T06:11:40.722Z,24
2022-08-09T06:12:37.009Z,24
2022-08-09T06:13:38.700Z,24
2022-08-09T06:14:40.852Z,24
2022-08-09T06:15:52.760Z,24
2022-08-09T06:16:53.644Z,24
2022-08-09T06:17:55.685Z,23.9
2022-08-09T06:18:57.712Z,24
2022-08-09T06:19:59.642Z,24
2022-08-09T06:21:01.897Z,24
2022-08-09T06:22:03.651Z,24
2022-08-09T06:23:06.557Z,24
2022-08-09T06:24:08.720Z,24
2022-08-09T06:25:12.261Z,24
2022-08-09T06:26:12.665Z,24.1
2022-08-09T06:27:15.503Z,24.3
2022-08-09T06:28:16.666Z,24.4
2022-08-09T06:29:18.730Z,24.5
2022-08-09T06:30:20.992Z,24.6
2022-08-09T06:31:30.434Z,24.7
2022-08-09T06:32:53.753Z,24.7
2022-08-09T06:33:30.666Z,24.6
2022-08-09T06:34:29.787Z,24.6
2022-08-09T06:35:35.969Z,24.7
2022-08-09T06:36:32.682Z,24.8
2022-08-09T06:37:49.799Z,24.9
2022-08-09T06:38:37.581Z,25.1
2022-08-09T06:39:48.888Z,25.1
2022-08-09T06:40:40.838Z,25
2022-08-09T06:42:01.273Z,25
2022-08-09T06:42:46.699Z,24.9
2022-08-09T06:43:46.708Z,24.8
2022-08-09T06:44:51.737Z,24.9
2022-08-09T06:46:05.679Z,24.9
2022-08-09T06:46:55.136Z,25.1
2022-08-09T06:47:57.856Z,25.2
2022-08-09T06:49:00.139Z,25.2
2022-08-09T06:50:12.525Z,25.3
2022-08-09T06:51:05.223Z,25.4
2022-08-09T06:52:06.753Z,25.5
2022-08-09T06:53:08.707Z,25.5
2022-08-09T06:54:12.523Z,25.4
2022-08-09T06:55:13.174Z,25.5
2022-08-09T06:56:14.800Z,25.4
2022-08-09T06:57:18.713Z,25.5
2022-08-09T06:58:28.546Z,25.4
2022-08-09T07:00:48.005Z,25.5
2022-08-09T07:00:48.018Z,25.4
2022-08-09T07:01:35.823Z,25.7
2022-08-09T07:02:31.998Z,25.7
2022-08-09T07:03:32.709Z,25.7
2022-08-09T07:04:34.715Z,25.8
2022-08-09T07:05:54.030Z,25.9
2022-08-09T07:06:38.770Z,26
2022-08-09T07:07:59.218Z,25.9
2022-08-09T07:08:44.187Z,25.9
2022-08-09T07:09:54.014Z,25.9
2022-08-09T07:10:47.738Z,25.8
2022-08-09T07:11:52.441Z,25.9
2022-08-09T07:12:57.302Z,26
2022-08-09T07:14:03.208Z,26.1
2022-08-09T07:14:58.257Z,26.2
2022-08-09T07:16:40.782Z,26.2
2022-08-09T07:17:05.340Z,26.2
2022-08-09T07:18:10.317Z,26.2
2022-08-09T07:19:09.742Z,26.2
2022-08-09T07:20:11.756Z,26.2
2022-08-09T07:21:14.172Z,26.3
2022-08-09T07:22:17.503Z,26.3
2022-08-09T07:23:20.759Z,26.2
2022-08-09T07:24:31.721Z,26.2
2022-08-09T07:25:24.756Z,26.2
2022-08-09T07:26:27.746Z,26.3
2022-08-09T07:27:33.697Z,26.4
2022-08-09T07:28:34.576Z,26.5
2022-08-09T07:29:37.855Z,26.6
2022-08-09T07:30:37.877Z,26.7
2022-08-09T07:31:45.069Z,26.8
2022-08-09T07:32:41.977Z,26.8
2022-08-09T07:33:52.356Z,26.9
2022-08-09T07:34:45.858Z,27
2022-08-09T07:35:53.747Z,27.1
2022-08-09T07:36:52.805Z,27.3
2022-08-09T07:37:59.262Z,27.4
2022-08-09T07:39:00.692Z,27.4
2022-08-09T07:39:59.346Z,27.5
2022-08-09T07:41:12.184Z,27.5
2022-08-09T07:42:03.849Z,27.5
2022-08-09T07:43:07.101Z,27.5
2022-08-09T07:44:07.822Z,27.5
2022-08-09T07:45:15.087Z,27.5
2022-08-09T07:46:11.804Z,27.4
2022-08-09T07:47:16.240Z,27.4
2022-08-09T07:48:22.682Z,27.4
2022-08-09T07:49:18.791Z,27.4
2022-08-09T07:50:32.549Z,27.4
2022-08-09T07:52:03.835Z,27.4
2022-08-09T07:52:30.995Z,27.4
2022-08-09T07:53:36.295Z,27.4
2022-08-09T07:54:34.803Z,27.6
2022-08-09T07:55:41.186Z,27.6
2022-08-09T07:56:45.316Z,27.7
2022-08-09T07:57:46.733Z,27.8
2022-08-09T07:58:43.852Z,27.8
2022-08-09T07:59:50.970Z,27.7
2022-08-09T08:00:55.456Z,27.7
2022-08-09T08:01:52.974Z,27.5
2022-08-09T08:02:54.386Z,27.4
2022-08-09T08:03:56.827Z,27.3
2022-08-09T08:04:58.819Z,27.2
2022-08-09T08:06:00.881Z,27.2
2022-08-09T08:07:09.824Z,27.2
2022-08-09T08:08:44.854Z,27.1
2022-08-09T08:09:18.865Z,27.1
2022-08-09T08:10:11.958Z,27.2
2022-08-09T08:12:09.574Z,27.3
2022-08-09T08:12:25.387Z,27.3
2022-08-09T08:13:17.860Z,27.4
2022-08-09T08:14:21.147Z,27.5
2022-08-09T08:15:22.996Z,27.5
2022-08-09T08:16:29.409Z,27.4
2022-08-09T08:17:35.669Z,27.4
2022-08-09T08:18:27.889Z,27.5
2022-08-09T08:19:31.321Z,27.6
2022-08-09T08:20:32.501Z,27.7
2022-08-09T08:21:33.982Z,27.9
2022-08-09T08:22:35.923Z,28
2022-08-09T08:23:37.863Z,28.1
2022-08-09T08:24:41.196Z,28.1
2022-08-09T08:25:44.221Z,28.1
2022-08-09T08:26:55.357Z,28.2
2022-08-09T08:27:45.931Z,28.2
2022-08-09T08:28:47.875Z,28.2
2022-08-09T08:29:52.357Z,28.3
2022-08-09T08:30:51.938Z,28.4
2022-08-09T08:32:02.230Z,28.5
2022-08-09T08:32:55.876Z,28.7
2022-08-09T08:33:57.889Z,28.9
2022-08-09T08:34:59.879Z,29.1
2022-08-09T08:36:03.622Z,29.2
2022-08-09T08:37:03.875Z,29.2
2022-08-09T08:38:09.319Z,29.2
2022-08-09T08:39:08.542Z,29.2
2022-08-09T08:40:09.880Z,29.3
2022-08-09T08:41:11.950Z,29.4
2022-08-09T08:42:13.880Z,29.4
2022-08-09T08:43:15.901Z,29.4
2022-08-09T08:44:23.350Z,29.4
2022-08-09T08:45:36.915Z,29.5
2022-08-09T08:46:35.383Z,29.5
2022-08-09T08:47:32.895Z,29.4
2022-08-09T08:48:34.936Z,29.3
2022-08-09T08:49:38.767Z,29.4
2022-08-09T08:50:38.899Z,29.5
2022-08-09T08:51:41.796Z,29.6
2022-08-09T08:53:00.423Z,29.9
2022-08-09T08:54:02.869Z,30.1
2022-08-09T08:54:47.510Z,30.2
2022-08-09T08:55:48.913Z,30.3
2022-08-09T08:56:50.948Z,30.4
2022-08-09T08:57:57.029Z,30.6
2022-08-09T08:58:54.920Z,30.6
2022-08-09T08:59:57.154Z,30.6
2022-08-09T09:00:58.912Z,30.3
2022-08-09T09:02:01.160Z,29.8
2022-08-09T09:03:08.950Z,29.4
2022-08-09T09:04:04.931Z,29
2022-08-09T09:05:09.899Z,28.9
2022-08-09T09:06:09.826Z,28.9
2022-08-09T09:07:11.925Z,28.9
2022-08-09T09:08:29.547Z,28.9
2022-08-09T09:09:20.917Z,28.9
2022-08-09T09:10:17.967Z,28.9
2022-08-09T09:11:20.083Z,29
2022-08-09T09:12:21.940Z,29.1
2022-08-09T09:13:24.503Z,29.3
2022-08-09T09:14:25.975Z,29.4
2022-08-09T09:15:28.868Z,29.6
2022-08-09T09:16:32.131Z,29.8
2022-08-09T09:17:48.795Z,30
2022-08-09T09:18:33.964Z,30.1
2022-08-09T09:19:40.997Z,30.3
2022-08-09T09:20:37.979Z,30.4
2022-08-09T09:21:43.334Z,30.6
2022-08-09T09:22:41.970Z,30.7
2022-08-09T09:23:50.069Z,30.9
2022-08-09T09:24:46.002Z,31
2022-08-09T09:26:02.895Z,31.3
2022-08-09T09:26:49.961Z,31.5
2022-08-09T09:28:04.780Z,31.8
2022-08-09T09:29:02.708Z,32
2022-08-09T09:30:16.740Z,32.1
2022-08-09T09:30:58.051Z,32
2022-08-09T09:32:02.053Z,31.9
2022-08-09T09:33:02.009Z,31.7
2022-08-09T09:34:04.026Z,31.3
2022-08-09T09:35:07.461Z,31
2022-08-09T09:36:11.859Z,30.9
2022-08-09T09:37:12.929Z,30.9
2022-08-09T09:38:18.524Z,31
2022-08-09T09:39:14.077Z,31.1
2022-08-09T09:40:17.615Z,31.2
2022-08-09T09:41:18.030Z,31.2
2022-08-09T09:42:20.101Z,31
2022-08-09T09:43:22.002Z,30.9
2022-08-09T09:44:25.075Z,30.8
2022-08-09T09:45:29.435Z,30.7
2022-08-09T09:46:45.754Z,30.8
2022-08-09T09:47:32.622Z,30.9
2022-08-09T09:48:33.004Z,31
2022-08-09T09:49:50.162Z,31.1
2022-08-09T09:50:37.060Z,31.1
2022-08-09T09:51:40.186Z,31.2
2022-08-09T09:52:41.059Z,31.2
2022-08-09T09:53:44.153Z,31.3
2022-08-09T09:54:48.659Z,31.5
2022-08-09T09:55:47.020Z,31.7
2022-08-09T09:56:53.154Z,32
2022-08-09T09:58:01.797Z,32.2
2022-08-09T09:58:53.383Z,32.5
2022-08-09T09:59:55.021Z,32.6
2022-08-09T10:00:58.626Z,32.9
2022-08-09T10:01:59.054Z,33.2
2022-08-09T10:03:09.022Z,33.4
2022-08-09T10:04:08.817Z,33.7
2022-08-09T10:05:06.583Z,33.9
2022-08-09T10:06:06.441Z,34.1
2022-08-09T10:07:09.888Z,34.4
2022-08-09T10:08:11.191Z,34.8
2022-08-09T10:09:22.038Z,35
2022-08-09T10:10:13.426Z,35.1
2022-08-09T10:11:39.730Z,35.2
2022-08-09T10:12:27.782Z,35.3
2022-08-09T10:13:23.130Z,35.6
2022-08-09T10:14:17.430Z,36
2022-08-09T10:15:25.458Z,36.4
2022-08-09T10:16:56.374Z,36.5
2022-08-09T10:17:24.439Z,36.2
2022-08-09T10:18:24.081Z,35.9
2022-08-09T10:19:26.894Z,35.5
2022-08-09T10:20:36.020Z,35.2
2022-08-09T10:21:35.492Z,35.2
2022-08-09T10:22:36.511Z,35.5
2022-08-09T10:23:38.092Z,35.6
2022-08-09T10:24:40.078Z,35.5
2022-08-09T10:26:04.207Z,35
2022-08-09T10:26:43.648Z,34.6
2022-08-09T10:27:56.407Z,34.5
2022-08-09T10:28:48.905Z,34.3
2022-08-09T10:30:29.719Z,34.4
2022-08-09T10:32:04.189Z,34.7
2022-08-09T10:32:53.433Z,34.7
2022-08-09T10:34:11.376Z,34.6
2022-08-09T10:34:56.459Z,34.4
2022-08-09T10:35:57.530Z,34.4
2022-08-09T10:36:59.102Z,34.6
2022-08-09T10:38:00.649Z,34.8
2022-08-09T10:39:02.151Z,34.9
2022-08-09T10:40:03.535Z,34.9
2022-08-09T10:41:04.555Z,35
2022-08-09T10:42:05.575Z,34.9
2022-08-09T10:43:08.197Z,35
2022-08-09T10:44:09.177Z,35.2
2022-08-09T10:45:12.188Z,35.2
2022-08-09T10:46:18.255Z,35
2022-08-09T10:47:20.360Z,34.9
2022-08-09T10:48:17.521Z,34.9
2022-08-09T10:49:16.528Z,35.1
2022-08-09T10:50:18.119Z,35.2
2022-08-09T10:51:20.351Z,35.3
2022-08-09T10:52:21.504Z,35.4
2022-08-09T10:53:23.387Z,35.5
2022-08-09T10:54:24.567Z,35.4
2022-08-09T10:55:26.349Z,35.3
2022-08-09T10:56:27.521Z,35.1
2022-08-09T10:57:28.521Z,34.8
2022-08-09T10:58:29.506Z,34.9
2022-08-09T10:59:31.747Z,35
2022-08-09T11:00:32.533Z,34.9
2022-08-09T11:03:03.715Z,34.8
2022-08-09T11:03:07.263Z,34.9
2022-08-09T11:03:47.215Z,35.2
2022-08-09T11:04:36.695Z,35.5
2022-08-09T11:05:37.556Z,35.7
2022-08-09T11:06:38.527Z,35.8
2022-08-09T11:07:53.975Z,36
2022-08-09T11:08:43.862Z,36.1
2022-08-09T11:09:48.099Z,36.3
2022-08-09T11:10:46.970Z,36.4
2022-08-09T11:11:43.705Z,36.2
2022-08-09T11:12:44.535Z,36.3
2022-08-09T11:13:49.776Z,36.4
2022-08-09T11:14:46.607Z,36.7
2022-08-09T11:15:50.667Z,37.1
2022-08-09T11:16:48.552Z,37.3
2022-08-09T11:17:53.608Z,37.6
2022-08-09T11:18:50.542Z,37.8
2022-08-09T11:20:12.317Z,38
2022-08-09T11:20:52.581Z,38.1
2022-08-09T11:21:55.378Z,37.8
2022-08-09T11:22:55.661Z,37.7
2022-08-09T11:23:55.567Z,37.9
2022-08-09T11:24:56.549Z,38
2022-08-09T11:25:57.566Z,38.1
2022-08-09T11:26:58.555Z,38.3
2022-08-09T11:28:05.735Z,38.4
2022-08-09T11:29:00.609Z,38.5
2022-08-09T11:30:05.456Z,38.7
2022-08-09T11:31:02.612Z,38.8
2022-08-09T11:32:03.577Z,38.8
2022-08-09T11:33:04.585Z,38.5
2022-08-09T11:34:05.590Z,38.4
2022-08-09T11:35:06.605Z,38.3
2022-08-09T11:36:07.677Z,38.1
2022-08-09T11:37:08.589Z,38
2022-08-09T11:38:09.594Z,38
2022-08-09T11:39:11.200Z,38.1
2022-08-09T11:40:11.792Z,38.2
2022-08-09T11:41:12.976Z,38.2
2022-08-09T11:42:14.569Z,38.2
2022-08-09T11:43:14.639Z,38.4
2022-08-09T11:44:15.577Z,38.6
2022-08-09T11:45:16.624Z,38.7
2022-08-09T11:46:18.594Z,38.8
2022-08-09T11:47:18.611Z,38.9
2022-08-09T11:48:25.426Z,38.8
2022-08-09T11:49:27.975Z,38.8
2022-08-09T11:50:52.839Z,38.9
2022-08-09T11:52:49.806Z,38.8
2022-08-09T11:53:04.592Z,38.7
2022-08-09T11:54:00.048Z,38.5
2022-08-09T11:54:28.299Z,38.3
2022-08-09T11:55:34.774Z,38.2
2022-08-09T11:56:41.311Z,38.3
2022-08-09T11:57:47.266Z,38.4
2022-08-09T11:58:32.846Z,38.4
2022-08-09T11:59:33.894Z,38.2
2022-08-09T12:00:33.904Z,38
2022-08-09T12:01:37.957Z,38
2022-08-09T12:02:37.793Z,38.2
2022-08-09T12:03:56.489Z,38.4
2022-08-09T12:04:39.734Z,38.7
2022-08-09T12:05:42.436Z,38.9
2022-08-09T12:06:42.850Z,39.1
2022-08-09T12:07:45.594Z,39.2
2022-08-09T12:08:46.691Z,39.2
2022-08-09T12:09:50.444Z,39.3
2022-08-09T12:10:48.715Z,39.5
2022-08-09T12:12:02.872Z,39.4
2022-08-09T12:12:52.678Z,39.3
2022-08-09T12:14:06.687Z,39
2022-08-09T12:15:04.442Z,38.4
2022-08-09T12:15:56.687Z,37.4
2022-08-09T12:16:58.217Z,36.6
2022-08-09T12:17:58.842Z,36.2
2022-08-09T12:18:59.729Z,36.1
2022-08-09T12:20:00.667Z,36.3
2022-08-09T12:21:02.640Z,36.7
2022-08-09T12:22:02.923Z,37
2022-08-09T12:23:06.754Z,37.4
2022-08-09T12:24:09.357Z,37.7
2022-08-09T12:25:08.724Z,38
2022-08-09T12:26:09.741Z,38.3
2022-08-09T12:28:57.861Z,38.4
2022-08-09T12:29:00.696Z,38.5
2022-08-09T12:29:33.840Z,38.6
2022-08-09T12:30:29.905Z,38.7
2022-08-09T12:31:30.751Z,38.8
2022-08-09T12:32:18.339Z,39.1
2022-08-09T12:33:20.497Z,39.3
2022-08-09T12:34:21.701Z,39.2
2022-08-09T12:35:22.698Z,39.2
2022-08-09T12:36:27.920Z,39.3
2022-08-09T12:37:29.202Z,39.3
2022-08-09T12:38:29.482Z,39.3
2022-08-09T12:39:28.951Z,39.4
2022-08-09T12:40:29.711Z,39.5
2022-08-09T12:41:36.575Z,39.6
2022-08-09T12:42:34.306Z,39.6
2022-08-09T12:44:04.676Z,39.1
2022-08-09T12:44:39.341Z,38.5
2022-08-09T12:45:40.756Z,37.7
2022-08-09T12:46:41.727Z,36.8
2022-08-09T12:47:42.792Z,36.4
2022-08-09T12:48:43.731Z,36.1
2022-08-09T12:49:51.168Z,36
2022-08-09T12:50:47.725Z,36.1
2022-08-09T12:51:52.942Z,36
2022-08-09T12:53:02.708Z,36.1
2022-08-09T12:53:55.126Z,36.3
2022-08-09T12:55:00.651Z,36.5
2022-08-09T12:56:13.395Z,36.8
2022-08-09T12:56:57.211Z,37
2022-08-09T12:57:58.896Z,37.3
2022-08-09T12:58:59.748Z,37.5
2022-08-09T13:00:02.991Z,37.8
2022-08-09T13:01:04.765Z,37.9
2022-08-09T13:02:02.797Z,38
2022-08-09T13:03:03.792Z,38.1
2022-08-09T13:04:04.751Z,38.1
2022-08-09T13:05:06.939Z,38.1
2022-08-09T13:06:10.702Z,38.1
2022-08-09T13:07:08.754Z,38.3
2022-08-09T13:08:09.804Z,38.3
2022-08-09T13:09:10.771Z,38.1
2022-08-09T13:10:11.783Z,38.1
2022-08-09T13:11:13.521Z,38.2
2022-08-09T13:12:13.789Z,38.3
2022-08-09T13:13:14.782Z,38.5
2022-08-09T13:14:38.518Z,38.7
2022-08-09T13:15:17.776Z,39
2022-08-09T13:16:18.779Z,39.2
2022-08-09T13:17:21.988Z,39.2
2022-08-09T13:18:20.784Z,39.3
2022-08-09T13:19:22.438Z,39.2
2022-08-09T13:20:24.606Z,39
2022-08-09T13:22:34.591Z,38.2
2022-08-09T13:22:34.611Z,38.7
2022-08-09T13:24:06.196Z,37.5
2022-08-09T13:24:42.447Z,36.9
2022-08-09T13:25:37.434Z,36.2
2022-08-09T13:26:37.052Z,35.5
2022-08-09T13:27:39.388Z,34.9
2022-08-09T13:28:40.419Z,34.5
2022-08-09T13:30:03.453Z,34.1
2022-08-09T13:30:49.707Z,33.9
2022-08-09T13:32:14.708Z,33.7
2022-08-09T13:32:48.709Z,33.6
2022-08-09T13:33:52.557Z,33.5
2022-08-09T13:34:52.431Z,33.5
2022-08-09T13:36:24.907Z,33.5
2022-08-09T13:36:56.465Z,33.6
2022-08-09T13:37:57.816Z,33.6
2022-08-09T13:39:01.178Z,33.9
2022-08-09T13:41:21.520Z,34.2
2022-08-09T13:41:22.093Z,34.4
2022-08-09T13:42:02.888Z,34.7
2022-08-09T13:43:05.083Z,34.9
2022-08-09T13:44:05.831Z,35
2022-08-09T13:45:08.298Z,35.1
2022-08-09T13:46:44.959Z,35.2
2022-08-09T13:47:18.430Z,35.1
2022-08-09T13:48:14.557Z,35
2022-08-09T13:49:18.208Z,35
2022-08-09T13:50:18.348Z,34.9
2022-08-09T13:51:19.492Z,34.8